Time;durP1;ratioP1;P1;durP2;ratioP2;P2;SDS_P1;SDS_P2;PMS_P1;PMS_P2;Temp;Humidity;BMP_temperature;BMP_pressure;BME280_temperature;BME280_humidity;BME280_pressure;Samples;Min_cycle;Max_cycle;Signal;HPM_P1;HPM_P2
2020/12/06 05:46:05;;;;;;;20.67;12.73;;;;;;;;;;6197553;22;884526;-81
2020/12/06 05:48:32;;;;;;;18.45;11.93;;;;;;;;;;6282662;22;20141;-81
2020/12/06 05:50:58;;;;;;;22.27;14.07;;;;;;;;;;6255334;22;20314;-82
2020/12/06 05:53:24;;;;;;;20.80;13.00;;;;;;;;;;6283015;22;20007;-82
2020/12/06 05:55:52;;;;;;;21.40;12.00;;;;;;;;;;6274845;22;20004;-82
2020/12/06 06:01:14;;;;;;;20.90;12.30;;;;;;;;;;6257885;22;20027;-79
2020/12/06 06:04:12;;;;;;;21.23;13.68;;;;;;;;;;6250960;23;20054;-79
2020/12/06 06:07:32;;;;;;;20.25;13.10;;;;;;;;;;6159021;23;20025;-79
2020/12/06 06:10:36;;;;;;;20.35;12.20;;;;;;;;;;6070383;23;20014;-78
2020/12/06 06:16:57;;;;;;;22.73;13.55;;;;;;;;;;6063057;23;20045;-79
2020/12/06 06:20:11;;;;;;;20.25;12.32;;;;;;;;;;6040660;23;20044;-79
2020/12/06 06:23:01;;;;;;;20.92;12.85;;;;;;;;;;6103439;23;20065;-78
2020/12/06 06:28:17;;;;;;;23.33;13.32;;;;;;;;;;4269104;27;25455741;-77
2020/12/06 06:34:05;;;;;;;18.35;11.85;;;;;;;;;;5136359;27;20038;-77
2020/12/06 06:37:03;;;;;;;16.90;10.30;;;;;;;;;;5140061;27;20490;-77
2020/12/06 06:39:40;;;;;;;20.00;12.48;;;;;;;;;;5135885;27;20368;-79
2020/12/06 06:52:28;;;;;;;19.13;11.77;;;;;;;;;;5035306;28;20132;-79
2020/12/06 06:55:32;;;;;;;18.30;10.98;;;;;;;;;;5011214;28;20031;-79
2020/12/06 06:58:40;;;;;;;17.83;11.23;;;;;;;;;;5030235;28;20419;-79
2020/12/06 07:01:52;;;;;;;16.83;11.52;;;;;;;;;;5056051;28;20128;-78
2020/12/06 07:05:08;;;;;;;19.48;11.70;;;;;;;;;;5115620;27;20039;-79
2020/12/06 07:13:40;;;;;;;18.00;10.85;;;;;;;;;;5092309;28;20961;-77
2020/12/06 07:16:10;;;;;;;19.90;12.55;;;;;;;;;;5066538;28;20032;-78
2020/12/06 07:18:38;;;;;;;16.52;10.02;;;;;;;;;;5062261;28;20608;-78
2020/12/06 07:21:04;;;;;;;17.00;11.07;;;;;;;;;;5054034;28;20087;-78
2020/12/06 07:23:31;;;;;;;18.77;11.90;;;;;;;;;;5054030;28;20080;-78
2020/12/06 07:25:56;;;;;;;19.15;11.52;;;;;;;;;;5046915;28;20052;-78
2020/12/06 07:28:22;;;;;;;19.10;11.50;;;;;;;;;;5054063;28;20018;-77
2020/12/06 07:30:48;;;;;;;21.20;13.82;;;;;;;;;;5033494;28;20033;-78
2020/12/06 07:33:14;;;;;;;17.15;10.85;;;;;;;;;;5055447;28;20052;-78
2020/12/06 07:35:40;;;;;;;21.17;12.55;;;;;;;;;;5045856;28;20384;-79
2020/12/06 07:38:06;;;;;;;21.23;12.45;;;;;;;;;;5057981;28;20033;-78
2020/12/06 07:40:32;;;;;;;19.30;11.60;;;;;;;;;;5049192;28;20613;-78
2020/12/06 07:45:17;;;;;;;17.10;11.32;;;;;;;;;;5174300;27;20390;-78
2020/12/06 07:47:43;;;;;;;21.75;12.25;;;;;;;;;;5155154;27;20048;-78
2020/12/06 07:50:09;;;;;;;19.80;12.10;;;;;;;;;;5153429;27;20060;-78
2020/12/06 07:52:36;;;;;;;19.42;12.02;;;;;;;;;;5149585;27;20142;-77
2020/12/06 07:55:01;;;;;;;18.17;10.43;;;;;;;;;;5150943;27;20541;-77
2020/12/06 07:57:54;;;;;;;20.33;11.55;;;;;;;;;;5145950;27;20019;-77
2020/12/06 08:00:28;;;;;;;21.15;13.05;;;;;;;;;;5141310;27;20159;-77
2020/12/06 08:02:58;;;;;;;18.67;11.63;;;;;;;;;;5146356;27;20431;-78
2020/12/06 08:05:27;;;;;;;19.13;11.88;;;;;;;;;;5148664;27;20029;-78
2020/12/06 08:08:04;;;;;;;19.25;11.90;;;;;;;;;;5147978;27;20031;-79
2020/12/06 08:10:31;;;;;;;19.17;12.95;;;;;;;;;;5144702;27;20087;-77
2020/12/06 08:12:57;;;;;;;18.13;11.90;;;;;;;;;;5150557;27;20103;-80
2020/12/06 08:15:24;;;;;;;19.60;11.68;;;;;;;;;;5149539;27;20043;-79
2020/12/06 08:17:51;;;;;;;19.52;11.35;;;;;;;;;;5149337;27;20435;-80
2020/12/06 08:20:18;;;;;;;21.15;12.43;;;;;;;;;;5150749;27;20034;-80
2020/12/06 08:22:54;;;;;;;22.95;14.65;;;;;;;;;;5145413;27;20111;-79
2020/12/06 08:25:22;;;;;;;26.05;15.73;;;;;;;;;;5148787;27;20122;-78
2020/12/06 08:27:48;;;;;;;28.65;17.52;;;;;;;;;;5150756;27;20035;-79
2020/12/06 08:30:18;;;;;;;49.03;17.65;;;;;;;;;;5137403;27;20027;-79
2020/12/06 08:32:53;;;;;;;26.45;16.52;;;;;;;;;;5147963;27;20023;-78
2020/12/06 08:35:19;;;;;;;24.40;15.35;;;;;;;;;;5142933;27;20060;-79
2020/12/06 08:37:45;;;;;;;32.85;18.13;;;;;;;;;;5143285;27;20015;-78
2020/12/06 08:40:12;;;;;;;51.13;24.02;;;;;;;;;;5144683;27;20023;-78
2020/12/06 08:42:38;;;;;;;45.05;24.60;;;;;;;;;;5147658;27;20015;-80
2020/12/06 08:45:04;;;;;;;34.08;19.30;;;;;;;;;;5150838;27;20083;-78
2020/12/06 08:47:41;;;;;;;29.88;18.35;;;;;;;;;;5148330;27;20065;-78
2020/12/06 08:50:08;;;;;;;29.33;18.48;;;;;;;;;;5144263;27;20038;-78
2020/12/06 08:57:10;;;;;;;33.33;19.95;;;;;;;;;;5101710;27;20397;-78
2020/12/06 08:59:37;;;;;;;30.15;18.63;;;;;;;;;;5093498;28;20477;-77
2020/12/06 09:02:04;;;;;;;31.48;19.42;;;;;;;;;;5097599;28;20074;-77
2020/12/06 09:04:32;;;;;;;27.58;18.08;;;;;;;;;;5094561;28;20044;-78
2020/12/06 09:06:58;;;;;;;27.05;18.45;;;;;;;;;;5103517;28;20368;-78
2020/12/06 09:09:24;;;;;;;35.22;22.13;;;;;;;;;;5103148;28;20043;-78
2020/12/06 09:11:53;;;;;;;35.90;21.48;;;;;;;;;;5104064;28;20509;-77
2020/12/06 09:14:19;;;;;;;35.80;21.10;;;;;;;;;;5101450;28;20032;-79
2020/12/06 09:19:10;;;;;;;32.78;20.52;;;;;;;;;;5085182;28;20401;-79
2020/12/06 09:22:14;;;;;;;31.42;21.48;;;;;;;;;;5081079;28;20044;-77
2020/12/06 09:24:44;;;;;;;28.58;20.20;;;;;;;;;;5086220;28;20025;-77
2020/12/06 09:27:23;;;;;;;34.40;20.70;;;;;;;;;;5087615;28;20097;-77
2020/12/06 09:32:59;;;;;;;26.77;16.48;;;;;;;;;;5089054;28;20098;-80
2020/12/06 09:38:51;;;;;;;22.40;15.40;;;;;;;;;;5089874;28;20040;-79
2020/12/06 09:41:19;;;;;;;20.60;13.30;;;;;;;;;;5074057;28;20025;-78
2020/12/06 09:43:50;;;;;;;20.45;12.73;;;;;;;;;;5079213;28;20048;-81
2020/12/06 09:46:16;;;;;;;;;;;;;;;;;;5092926;28;20020;-80
2020/12/06 09:48:50;;;;;;;17.20;10.90;;;;;;;;;;5102709;28;19951;-80
2020/12/06 09:53:36;;;;;;;15.77;9.77;;;;;;;;;;5147318;27;20374;-78
2020/12/06 09:56:02;;;;;;;17.08;10.32;;;;;;;;;;5117104;28;20035;-78
2020/12/06 10:00:46;;;;;;;14.43;9.07;;;;;;;;;;5167801;27;20347;-78
2020/12/06 10:03:12;;;;;;;13.77;8.80;;;;;;;;;;5151125;27;20034;-78
2020/12/06 10:05:38;;;;;;;13.00;7.97;;;;;;;;;;5149202;27;20039;-78
2020/12/06 10:08:04;;;;;;;12.43;7.53;;;;;;;;;;5151581;27;20031;-77
2020/12/06 10:10:30;;;;;;;14.45;8.35;;;;;;;;;;5153629;27;20029;-77
2020/12/06 10:12:56;;;;;;;16.38;9.65;;;;;;;;;;5132091;27;20359;-78
2020/12/06 10:15:22;;;;;;;13.20;8.35;;;;;;;;;;5149298;27;20118;-78
2020/12/06 10:17:48;;;;;;;11.23;7.05;;;;;;;;;;5154763;27;20023;-77
2020/12/06 10:20:14;;;;;;;20.08;10.18;;;;;;;;;;5138724;27;20050;-78
2020/12/06 10:22:40;;;;;;;18.67;9.93;;;;;;;;;;5143656;27;20381;-78
2020/12/06 10:25:07;;;;;;;14.60;9.50;;;;;;;;;;5135001;27;20114;-79
2020/12/06 10:27:33;;;;;;;16.13;9.38;;;;;;;;;;5133262;27;20475;-79
2020/12/06 10:29:59;;;;;;;17.80;10.23;;;;;;;;;;5150731;27;20083;-78
2020/12/06 10:32:25;;;;;;;16.08;10.15;;;;;;;;;;5152444;27;20455;-78
2020/12/06 10:34:51;;;;;;;18.65;10.75;;;;;;;;;;5142058;27;20025;-78
2020/12/06 10:37:17;;;;;;;15.57;10.45;;;;;;;;;;5151524;27;20027;-78
2020/12/06 10:39:43;;;;;;;16.50;11.18;;;;;;;;;;5145987;27;20031;-78
2020/12/06 10:42:09;;;;;;;13.95;9.23;;;;;;;;;;5135757;27;20023;-78
2020/12/06 10:44:35;;;;;;;16.50;9.93;;;;;;;;;;5143580;27;20079;-78
2020/12/06 10:49:20;;;;;;;12.38;8.07;;;;;;;;;;5086365;27;20428;-78
2020/12/06 10:51:47;;;;;;;13.90;9.05;;;;;;;;;;5053124;28;20112;-78
2020/12/06 10:54:14;;;;;;;13.20;8.70;;;;;;;;;;5050429;28;20385;-78
2020/12/06 10:56:40;;;;;;;15.00;9.95;;;;;;;;;;5046071;28;20044;-78
2020/12/06 10:59:06;;;;;;;13.27;8.00;;;;;;;;;;5046700;28;20040;-78
2020/12/06 11:01:33;;;;;;;13.05;8.15;;;;;;;;;;5057817;28;20104;-78
2020/12/06 11:04:00;;;;;;;13.05;7.45;;;;;;;;;;5049626;28;20025;-78
2020/12/06 11:06:26;;;;;;;13.18;7.65;;;;;;;;;;5056045;28;20028;-79
2020/12/06 11:08:52;;;;;;;9.73;6.55;;;;;;;;;;5055940;28;20025;-78
2020/12/06 11:11:19;;;;;;;10.48;6.15;;;;;;;;;;5054336;28;20029;-78
2020/12/06 11:13:45;;;;;;;9.80;6.43;;;;;;;;;;5051680;28;20041;-78
2020/12/06 11:16:15;;;;;;;9.45;6.47;;;;;;;;;;5045426;28;20040;-78
2020/12/06 11:18:41;;;;;;;8.02;5.63;;;;;;;;;;5051633;28;20021;-78
2020/12/06 11:21:07;;;;;;;9.70;6.78;;;;;;;;;;5059953;28;20044;-78
2020/12/06 11:23:33;;;;;;;10.45;6.05;;;;;;;;;;5050470;28;20037;-78
2020/12/06 11:25:59;;;;;;;11.07;6.57;;;;;;;;;;5062737;28;20635;-78
2020/12/06 11:28:29;;;;;;;11.45;6.55;;;;;;;;;;5064467;28;20028;-78
2020/12/06 11:33:16;;;;;;;13.85;8.05;;;;;;;;;;5064099;28;20849;-77
2020/12/06 11:35:42;;;;;;;11.48;8.10;;;;;;;;;;5045246;28;20080;-78
2020/12/06 11:38:09;;;;;;;10.68;7.15;;;;;;;;;;5049655;28;20542;-77
2020/12/06 11:40:54;;;;;;;12.07;7.65;;;;;;;;;;5045562;28;20022;-77
2020/12/06 11:43:41;;;;;;;15.00;8.70;;;;;;;;;;5054851;28;20044;-78
2020/12/06 11:50:05;;;;;;;14.60;8.63;;;;;;;;;;5049570;28;20090;-78
2020/12/06 11:52:51;;;;;;;12.55;7.93;;;;;;;;;;5080626;28;20040;-77
2020/12/06 11:55:39;;;;;;;12.15;7.75;;;;;;;;;;5085061;28;20036;-77
2020/12/06 11:58:36;;;;;;;13.75;8.25;;;;;;;;;;5077427;28;20449;-77
2020/12/06 12:01:05;;;;;;;11.90;7.15;;;;;;;;;;5072912;22;20507;-82
2020/12/06 12:03:32;;;;;;;9.68;6.43;;;;;;;;;;5054025;28;20029;-82
2020/12/06 12:05:57;;;;;;;10.82;6.65;;;;;;;;;;5054699;28;20033;-82
2020/12/06 12:08:23;;;;;;;9.68;6.50;;;;;;;;;;5052557;28;20029;-82
2020/12/06 12:10:49;;;;;;;9.57;6.10;;;;;;;;;;5052078;28;20056;-82
2020/12/06 12:13:15;;;;;;;9.45;6.55;;;;;;;;;;5060664;28;20033;-82
2020/12/06 12:15:41;;;;;;;9.70;6.25;;;;;;;;;;5062750;28;20039;-81
2020/12/06 12:18:09;;;;;;;10.90;7.60;;;;;;;;;;5054622;28;20033;-82
2020/12/06 12:20:35;;;;;;;13.85;9.23;;;;;;;;;;5053292;28;20041;-82
2020/12/06 12:23:01;;;;;;;12.65;9.27;;;;;;;;;;5060608;28;20056;-82
2020/12/06 12:25:27;;;;;;;13.95;8.85;;;;;;;;;;5050058;28;20021;-80
2020/12/06 12:27:53;;;;;;;12.93;8.13;;;;;;;;;;5047492;28;20035;-80
2020/12/06 12:30:19;;;;;;;14.95;8.55;;;;;;;;;;5044829;28;20038;-80
2020/12/06 12:32:45;;;;;;;13.30;7.82;;;;;;;;;;5060896;28;20031;-81
2020/12/06 12:35:11;;;;;;;11.20;7.20;;;;;;;;;;5054001;28;20028;-81
2020/12/06 12:37:37;;;;;;;10.15;6.57;;;;;;;;;;5063738;28;20021;-81
2020/12/06 12:40:03;;;;;;;10.63;6.82;;;;;;;;;;5046139;28;20030;-80
2020/12/06 12:42:29;;;;;;;10.57;6.20;;;;;;;;;;5047269;28;20030;-80
2020/12/06 12:44:55;;;;;;;9.32;6.03;;;;;;;;;;5037286;28;20274;-80
2020/12/06 12:47:21;;;;;;;8.80;6.00;;;;;;;;;;5032819;28;20021;-80
2020/12/06 12:49:47;;;;;;;10.27;6.70;;;;;;;;;;5040937;28;20142;-81
2020/12/06 12:52:13;;;;;;;9.13;6.80;;;;;;;;;;5033908;28;20061;-81
2020/12/06 12:54:39;;;;;;;14.48;7.28;;;;;;;;;;5037709;28;20040;-81
2020/12/06 12:57:05;;;;;;;14.05;9.30;;;;;;;;;;5044761;28;20400;-80
2020/12/06 12:59:32;;;;;;;15.77;10.45;;;;;;;;;;5060533;28;20032;-82
2020/12/06 13:01:58;;;;;;;15.45;9.73;;;;;;;;;;5041209;28;20029;-81
2020/12/06 13:04:24;;;;;;;11.15;8.13;;;;;;;;;;5034214;28;20041;-82
2020/12/06 13:06:50;;;;;;;11.23;7.72;;;;;;;;;;5036766;28;20032;-82
2020/12/06 13:09:16;;;;;;;13.35;8.45;;;;;;;;;;5040143;28;20021;-83
2020/12/06 13:11:42;;;;;;;11.35;7.07;;;;;;;;;;5041263;28;20061;-82
2020/12/06 13:14:08;;;;;;;11.10;7.50;;;;;;;;;;5034941;28;20036;-82
2020/12/06 13:16:35;;;;;;;11.77;7.10;;;;;;;;;;5035511;28;20029;-82
2020/12/06 13:19:01;;;;;;;11.98;7.55;;;;;;;;;;5032588;28;20029;-82
2020/12/06 13:21:27;;;;;;;12.63;8.70;;;;;;;;;;5030272;28;20391;-82
2020/12/06 13:23:53;;;;;;;13.93;8.68;;;;;;;;;;5033332;28;20029;-82
2020/12/06 13:26:20;;;;;;;13.52;9.45;;;;;;;;;;5032205;28;20049;-82
2020/12/06 13:28:46;;;;;;;10.23;6.93;;;;;;;;;;5036416;28;20083;-82
2020/12/06 13:31:22;;;;;;;11.52;7.20;;;;;;;;;;5037053;28;20087;-82
2020/12/06 13:33:48;;;;;;;11.57;8.07;;;;;;;;;;5034875;28;20029;-82
2020/12/06 13:36:18;;;;;;;15.48;8.82;;;;;;;;;;5032320;28;20064;-81
2020/12/06 13:38:45;;;;;;;15.25;10.20;;;;;;;;;;5028948;28;20036;-82
2020/12/06 13:41:11;;;;;;;16.13;9.35;;;;;;;;;;5032212;28;20035;-82
2020/12/06 13:43:37;;;;;;;14.95;9.15;;;;;;;;;;5036292;28;20481;-82
2020/12/06 13:46:03;;;;;;;15.57;7.82;;;;;;;;;;5033537;28;20032;-82
2020/12/06 13:48:29;;;;;;;14.40;9.80;;;;;;;;;;5033760;28;20022;-82
2020/12/06 13:50:55;;;;;;;18.58;11.85;;;;;;;;;;5032387;28;20025;-82
2020/12/06 13:53:22;;;;;;;20.42;13.65;;;;;;;;;;5032228;28;20105;-82
2020/12/06 13:55:48;;;;;;;19.00;12.90;;;;;;;;;;5029703;28;20022;-82
2020/12/06 13:58:14;;;;;;;25.05;15.63;;;;;;;;;;5035680;28;20029;-82
2020/12/06 14:00:40;;;;;;;24.63;14.90;;;;;;;;;;5030424;28;20080;-82
2020/12/06 14:03:06;;;;;;;24.38;15.35;;;;;;;;;;5031865;28;20038;-82
2020/12/06 14:05:32;;;;;;;24.50;15.52;;;;;;;;;;5032058;28;20059;-82
2020/12/06 14:07:58;;;;;;;27.35;17.05;;;;;;;;;;5033212;28;20037;-82
2020/12/06 14:10:24;;;;;;;26.08;15.80;;;;;;;;;;5031596;28;20045;-82
2020/12/06 14:12:50;;;;;;;23.33;14.88;;;;;;;;;;5033381;28;20025;-82
2020/12/06 14:15:16;;;;;;;27.10;17.13;;;;;;;;;;5034750;28;20010;-81
2020/12/06 14:17:42;;;;;;;30.25;18.88;;;;;;;;;;5045143;28;20104;-81
2020/12/06 14:20:08;;;;;;;30.50;19.40;;;;;;;;;;5044115;28;20496;-82
2020/12/06 14:22:34;;;;;;;31.23;18.38;;;;;;;;;;5044648;28;20022;-81
2020/12/06 14:25:00;;;;;;;35.75;20.38;;;;;;;;;;5056693;28;20048;-81
2020/12/06 14:27:26;;;;;;;31.83;18.80;;;;;;;;;;5042541;28;20045;-82
2020/12/06 14:29:52;;;;;;;37.10;20.30;;;;;;;;;;5041158;28;20122;-81
2020/12/06 14:32:18;;;;;;;29.23;19.05;;;;;;;;;;5030874;28;20112;-82
2020/12/06 14:34:44;;;;;;;33.22;21.05;;;;;;;;;;5029100;28;20051;-82
2020/12/06 14:37:10;;;;;;;31.13;20.23;;;;;;;;;;5029110;28;20592;-82
2020/12/06 14:39:35;;;;;;;31.65;19.02;;;;;;;;;;5033195;28;20017;-82
2020/12/06 14:42:02;;;;;;;33.08;19.52;;;;;;;;;;5028622;28;20417;-82
2020/12/06 14:44:28;;;;;;;36.80;21.63;;;;;;;;;;5031112;28;20036;-83
2020/12/06 14:46:54;;;;;;;31.10;19.48;;;;;;;;;;5032111;28;20496;-82
2020/12/06 14:49:20;;;;;;;32.97;19.33;;;;;;;;;;5044024;28;20028;-83
2020/12/06 14:51:47;;;;;;;29.45;19.30;;;;;;;;;;5025564;28;20543;-83
2020/12/06 14:54:12;;;;;;;29.15;18.35;;;;;;;;;;5041699;28;20037;-83
2020/12/06 14:56:41;;;;;;;31.85;20.33;;;;;;;;;;5032122;28;20040;-83
2020/12/06 14:59:06;;;;;;;28.83;17.67;;;;;;;;;;5028247;28;20038;-83
2020/12/06 15:01:32;;;;;;;29.88;17.60;;;;;;;;;;5027919;28;20758;-83
2020/12/06 15:03:58;;;;;;;29.27;19.17;;;;;;;;;;5031266;28;20032;-82
2020/12/06 15:06:30;;;;;;;35.83;21.27;;;;;;;;;;5033176;28;20042;-83
2020/12/06 15:08:56;;;;;;;30.80;21.27;;;;;;;;;;5030830;28;20033;-82
2020/12/06 15:11:22;;;;;;;29.20;19.33;;;;;;;;;;5024213;28;20496;-82
2020/12/06 15:13:48;;;;;;;35.42;21.20;;;;;;;;;;5041147;28;20029;-82
2020/12/06 15:16:14;;;;;;;34.00;19.33;;;;;;;;;;5027568;28;20091;-82
2020/12/06 15:18:41;;;;;;;34.10;20.60;;;;;;;;;;5030539;28;20028;-82
2020/12/06 15:21:07;;;;;;;48.40;27.75;;;;;;;;;;5026878;28;20029;-82
2020/12/06 15:23:32;;;;;;;43.75;27.95;;;;;;;;;;5029653;28;20051;-82
2020/12/06 15:25:58;;;;;;;43.75;26.90;;;;;;;;;;5032418;28;20022;-82
2020/12/06 15:28:24;;;;;;;41.92;27.58;;;;;;;;;;5028234;28;20099;-82
2020/12/06 15:30:50;;;;;;;42.47;26.25;;;;;;;;;;5034789;28;20025;-82
2020/12/06 15:33:16;;;;;;;39.55;23.58;;;;;;;;;;5032776;28;20092;-82
2020/12/06 15:35:42;;;;;;;37.10;21.52;;;;;;;;;;5032850;28;20061;-82
2020/12/06 15:38:08;;;;;;;34.13;21.80;;;;;;;;;;5029095;28;20104;-81
2020/12/06 15:40:34;;;;;;;30.88;19.83;;;;;;;;;;5043330;28;20083;-81
2020/12/06 15:43:00;;;;;;;28.95;18.90;;;;;;;;;;5039717;28;20112;-80
2020/12/06 15:45:26;;;;;;;27.52;19.17;;;;;;;;;;5036478;28;20030;-80
2020/12/06 15:47:52;;;;;;;30.42;20.00;;;;;;;;;;5031331;28;20029;-81
2020/12/06 15:50:18;;;;;;;27.95;17.13;;;;;;;;;;5033379;28;20040;-82
2020/12/06 15:52:44;;;;;;;27.17;18.00;;;;;;;;;;5034046;28;20034;-83
2020/12/06 15:55:10;;;;;;;25.95;17.67;;;;;;;;;;5047120;28;20030;-83
2020/12/06 15:57:36;;;;;;;30.58;18.77;;;;;;;;;;5031119;28;20026;-83
2020/12/06 16:00:04;;;;;;;34.42;20.23;;;;;;;;;;5029341;28;20366;-83
2020/12/06 16:02:30;;;;;;;26.90;16.27;;;;;;;;;;5033443;28;20033;-83
2020/12/06 16:04:56;;;;;;;25.02;16.40;;;;;;;;;;5049152;28;20484;-83
2020/12/06 16:07:26;;;;;;;29.40;17.38;;;;;;;;;;5027236;28;20037;-83
2020/12/06 16:09:52;;;;;;;29.00;18.77;;;;;;;;;;5031500;28;20021;-83
2020/12/06 16:12:18;;;;;;;26.98;16.85;;;;;;;;;;5032304;28;20033;-83
2020/12/06 16:17:03;;;;;;;27.63;16.65;;;;;;;;;;5111647;27;20364;-83
2020/12/06 16:19:29;;;;;;;31.90;20.92;;;;;;;;;;5100143;28;20016;-83
2020/12/06 16:21:55;;;;;;;26.90;17.15;;;;;;;;;;5091301;28;20020;-83
2020/12/06 16:24:21;;;;;;;25.90;16.23;;;;;;;;;;5085983;28;20465;-83
2020/12/06 16:26:47;;;;;;;26.17;16.05;;;;;;;;;;5087594;28;20033;-83
2020/12/06 16:29:15;;;;;;;27.25;17.52;;;;;;;;;;5089446;28;20021;-83
2020/12/06 16:31:41;;;;;;;25.23;15.23;;;;;;;;;;5090783;28;20035;-83
2020/12/06 16:36:25;;;;;;;25.70;16.20;;;;;;;;;;5090733;27;20352;-83
2020/12/06 16:38:52;;;;;;;27.45;16.58;;;;;;;;;;5074513;28;20044;-83
2020/12/06 16:41:18;;;;;;;27.08;16.55;;;;;;;;;;5068322;28;20028;-83
2020/12/06 16:43:44;;;;;;;25.45;16.08;;;;;;;;;;5071175;28;20021;-83
2020/12/06 16:46:11;;;;;;;28.50;16.52;;;;;;;;;;5065305;28;20021;-84
2020/12/06 16:48:37;;;;;;;29.75;16.48;;;;;;;;;;5071362;28;20040;-83
2020/12/06 16:51:03;;;;;;;31.13;17.60;;;;;;;;;;5066519;28;20029;-81
2020/12/06 16:53:29;;;;;;;33.60;16.95;;;;;;;;;;5067379;28;20488;-83
2020/12/06 16:55:55;;;;;;;25.48;15.82;;;;;;;;;;5068249;28;20381;-84
2020/12/06 16:58:21;;;;;;;26.17;16.67;;;;;;;;;;5067442;28;20757;-83
2020/12/06 17:00:47;;;;;;;28.48;17.48;;;;;;;;;;5069148;28;20029;-83
2020/12/06 17:03:13;;;;;;;24.50;15.93;;;;;;;;;;5064487;28;20024;-83
2020/12/06 17:05:39;;;;;;;29.15;17.20;;;;;;;;;;5064519;28;20092;-82
2020/12/06 17:08:05;;;;;;;29.25;17.70;;;;;;;;;;5065964;28;20051;-83
2020/12/06 17:10:31;;;;;;;34.97;16.95;;;;;;;;;;5061143;28;20033;-83
2020/12/06 17:12:57;;;;;;;29.38;18.02;;;;;;;;;;5066725;28;20035;-83
2020/12/06 17:15:23;;;;;;;29.42;17.52;;;;;;;;;;5067174;28;20435;-81
2020/12/06 17:17:49;;;;;;;25.38;16.15;;;;;;;;;;5068743;28;20485;-82
2020/12/06 17:20:15;;;;;;;31.45;17.90;;;;;;;;;;5063457;28;20074;-81
2020/12/06 17:22:41;;;;;;;26.15;15.85;;;;;;;;;;5066070;28;20028;-82
2020/12/06 17:25:07;;;;;;;28.90;16.35;;;;;;;;;;5062210;28;20048;-82
2020/12/06 17:27:33;;;;;;;26.75;16.13;;;;;;;;;;5064010;28;20033;-82
2020/12/06 17:29:59;;;;;;;25.52;16.40;;;;;;;;;;5064356;28;20032;-82
2020/12/06 17:32:25;;;;;;;26.23;16.23;;;;;;;;;;5068567;28;20021;-82
2020/12/06 17:34:51;;;;;;;27.45;16.20;;;;;;;;;;5077927;28;20033;-81
2020/12/06 17:37:17;;;;;;;26.10;15.70;;;;;;;;;;5066154;28;20096;-81
2020/12/06 17:39:43;;;;;;;28.33;17.35;;;;;;;;;;5066963;28;20021;-82
2020/12/06 17:42:09;;;;;;;25.45;16.35;;;;;;;;;;5068809;28;20107;-79
2020/12/06 17:44:35;;;;;;;29.00;17.25;;;;;;;;;;5066611;28;20029;-80
2020/12/06 17:47:02;;;;;;;29.75;17.30;;;;;;;;;;5069521;28;20111;-80
2020/12/06 17:49:28;;;;;;;28.10;15.52;;;;;;;;;;5068145;28;20380;-79
2020/12/06 17:54:13;;;;;;;28.85;15.95;;;;;;;;;;5123799;27;20444;-80
2020/12/06 17:56:39;;;;;;;25.90;15.38;;;;;;;;;;5099986;28;20044;-81
2020/12/06 17:59:05;;;;;;;24.92;14.23;;;;;;;;;;5091794;28;20032;-81
2020/12/06 18:01:31;;;;;;;27.75;16.98;;;;;;;;;;5078567;28;20025;-81
2020/12/06 18:03:57;;;;;;;30.20;17.63;;;;;;;;;;5069339;28;20403;-80
2020/12/06 18:06:23;;;;;;;33.33;19.92;;;;;;;;;;5069775;28;20021;-81
2020/12/06 18:08:49;;;;;;;32.03;18.85;;;;;;;;;;5071689;28;20040;-81
2020/12/06 18:11:15;;;;;;;29.77;17.73;;;;;;;;;;5071930;28;20095;-81
2020/12/06 18:13:41;;;;;;;30.25;16.33;;;;;;;;;;5082253;28;20033;-81
2020/12/06 18:16:08;;;;;;;31.80;16.30;;;;;;;;;;5068501;28;20025;-81
2020/12/06 18:18:34;;;;;;;30.38;18.52;;;;;;;;;;5069935;28;20044;-81
2020/12/06 18:21:00;;;;;;;37.08;20.73;;;;;;;;;;5073953;28;20045;-80
2020/12/06 18:23:26;;;;;;;30.45;18.73;;;;;;;;;;5072481;28;20416;-80
2020/12/06 18:25:52;;;;;;;34.42;21.30;;;;;;;;;;5065051;28;20029;-79
2020/12/06 18:28:18;;;;;;;35.00;19.42;;;;;;;;;;5061671;28;20044;-80
2020/12/06 18:30:44;;;;;;;36.55;20.55;;;;;;;;;;5066844;28;20024;-81
2020/12/06 18:33:10;;;;;;;36.80;21.48;;;;;;;;;;5063773;28;20415;-81
2020/12/06 18:35:36;;;;;;;38.13;21.90;;;;;;;;;;5080421;28;20033;-81
2020/12/06 18:40:20;;;;;;;32.08;20.05;;;;;;;;;;5088581;27;20329;-81
2020/12/06 18:42:48;;;;;;;32.40;20.33;;;;;;;;;;5076488;28;20737;-81
2020/12/06 18:45:14;;;;;;;51.65;27.08;;;;;;;;;;5071336;28;20017;-81
2020/12/06 18:47:40;;;;;;;49.83;25.55;;;;;;;;;;5076044;28;20021;-81
2020/12/06 18:50:09;;;;;;;41.67;24.77;;;;;;;;;;5077508;28;20025;-81
2020/12/06 18:52:38;;;;;;;41.53;24.02;;;;;;;;;;5070874;28;20033;-81
2020/12/06 18:55:05;;;;;;;39.03;22.67;;;;;;;;;;5089155;28;20028;-81
2020/12/06 18:57:31;;;;;;;39.85;23.88;;;;;;;;;;5074539;28;20024;-81
2020/12/06 18:59:57;;;;;;;37.63;23.65;;;;;;;;;;5076914;28;20452;-81
2020/12/06 19:02:23;;;;;;;37.63;21.40;;;;;;;;;;5075759;28;20058;-80
2020/12/06 19:13:40;;;;;;;47.28;26.90;;;;;;;;;;5052173;28;20121;-81
2020/12/06 19:16:10;;;;;;;38.30;24.27;;;;;;;;;;5047815;28;20021;-81
2020/12/06 19:18:37;;;;;;;40.05;24.15;;;;;;;;;;5045352;28;20022;-81
2020/12/06 19:23:22;;;;;;;43.53;24.90;;;;;;;;;;5063824;28;20369;-80
2020/12/06 19:25:48;;;;;;;44.65;26.90;;;;;;;;;;5052188;28;20469;-81
2020/12/06 19:28:14;;;;;;;53.15;30.02;;;;;;;;;;5061840;28;20079;-80
2020/12/06 19:30:40;;;;;;;48.50;29.52;;;;;;;;;;5063154;28;20029;-80
2020/12/06 19:33:08;;;;;;;48.50;28.95;;;;;;;;;;5061287;28;20032;-80
2020/12/06 19:35:34;;;;;;;48.50;28.33;;;;;;;;;;5058213;28;20064;-80
2020/12/06 19:38:03;;;;;;;46.65;28.25;;;;;;;;;;5058244;28;20025;-80
2020/12/06 19:40:29;;;;;;;47.00;27.98;;;;;;;;;;5060769;28;20053;-80
2020/12/06 19:42:59;;;;;;;48.88;28.00;;;;;;;;;;5057230;28;20036;-80
2020/12/06 19:45:25;;;;;;;43.83;28.23;;;;;;;;;;5062424;28;20024;-80
2020/12/06 19:47:51;;;;;;;41.03;24.85;;;;;;;;;;5060707;28;20105;-80
2020/12/06 19:50:18;;;;;;;38.67;24.70;;;;;;;;;;5056979;28;20098;-80
2020/12/06 19:52:44;;;;;;;43.80;25.08;;;;;;;;;;5054211;28;20389;-80
2020/12/06 19:55:11;;;;;;;46.17;27.17;;;;;;;;;;5057911;28;20110;-80
2020/12/06 19:57:37;;;;;;;42.17;25.50;;;;;;;;;;5052053;28;20025;-80
2020/12/06 20:00:05;;;;;;;37.60;24.00;;;;;;;;;;5050885;28;20083;-80
2020/12/06 20:02:31;;;;;;;37.88;22.92;;;;;;;;;;5058001;28;20090;-80
2020/12/06 20:04:57;;;;;;;39.85;23.27;;;;;;;;;;5059432;28;20025;-80
2020/12/06 20:07:27;;;;;;;39.70;23.90;;;;;;;;;;5059536;28;20035;-80
2020/12/06 20:09:53;;;;;;;37.25;23.23;;;;;;;;;;5053576;28;20040;-80
2020/12/06 20:12:19;;;;;;;37.13;22.38;;;;;;;;;;5061275;28;20033;-80
2020/12/06 20:14:48;;;;;;;34.63;21.25;;;;;;;;;;5066303;28;20504;-81
2020/12/06 20:17:15;;;;;;;39.25;22.35;;;;;;;;;;5063731;28;20033;-81
2020/12/06 20:19:41;;;;;;;38.47;22.45;;;;;;;;;;5058471;28;20026;-81
2020/12/06 20:22:15;;;;;;;36.58;23.42;;;;;;;;;;5057156;28;20074;-81
2020/12/06 20:24:41;;;;;;;34.38;20.17;;;;;;;;;;5056693;28;20033;-81
2020/12/06 20:27:07;;;;;;;36.45;22.75;;;;;;;;;;5050506;28;20119;-81
2020/12/06 20:29:33;;;;;;;35.67;21.70;;;;;;;;;;5057278;28;20032;-81
2020/12/06 20:32:00;;;;;;;35.72;21.88;;;;;;;;;;5058617;28;20033;-81
2020/12/06 20:34:26;;;;;;;39.60;22.52;;;;;;;;;;5046650;28;20501;-81
2020/12/06 20:36:53;;;;;;;36.30;20.88;;;;;;;;;;5037022;28;20090;-81
2020/12/06 20:39:19;;;;;;;36.08;22.17;;;;;;;;;;5044198;28;20037;-82
2020/12/06 20:44:03;;;;;;;35.88;21.90;;;;;;;;;;5097100;27;20345;-82
2020/12/06 20:46:30;;;;;;;42.35;23.55;;;;;;;;;;5094676;28;20051;-82
2020/12/06 20:48:56;;;;;;;37.20;22.02;;;;;;;;;;5094500;28;20047;-81
2020/12/06 20:51:22;;;;;;;37.15;22.73;;;;;;;;;;5097496;28;20429;-82
2020/12/06 20:56:08;;;;;;;36.83;21.80;;;;;;;;;;5105386;27;20343;-82
2020/12/06 20:58:34;;;;;;;36.67;22.15;;;;;;;;;;5092391;28;20028;-81
2020/12/06 21:01:00;;;;;;;39.10;22.30;;;;;;;;;;5093494;28;20038;-81
2020/12/06 21:03:26;;;;;;;39.95;22.50;;;;;;;;;;5088952;28;20532;-81
2020/12/06 21:05:52;;;;;;;36.17;21.73;;;;;;;;;;5094321;28;20028;-82
2020/12/06 21:08:18;;;;;;;38.35;22.85;;;;;;;;;;5088303;28;20098;-81
2020/12/06 21:10:44;;;;;;;35.30;20.85;;;;;;;;;;5093746;28;20473;-81
2020/12/06 21:13:10;;;;;;;40.03;21.73;;;;;;;;;;5093744;28;20020;-81
2020/12/06 21:15:36;;;;;;;33.45;20.25;;;;;;;;;;5091148;28;20544;-81
2020/12/06 21:18:02;;;;;;;35.67;20.13;;;;;;;;;;5094355;28;20031;-81
2020/12/06 21:20:28;;;;;;;33.00;18.48;;;;;;;;;;5083151;28;20512;-81
2020/12/06 21:22:54;;;;;;;32.67;19.20;;;;;;;;;;5089292;28;20066;-81
2020/12/06 21:25:20;;;;;;;37.33;19.45;;;;;;;;;;5089674;28;20387;-81
2020/12/06 21:27:46;;;;;;;35.95;21.77;;;;;;;;;;5086156;28;20032;-81
2020/12/06 21:30:12;;;;;;;39.55;22.73;;;;;;;;;;5087515;28;20020;-81
2020/12/06 21:34:57;;;;;;;39.97;22.75;;;;;;;;;;5061358;28;20379;-81
2020/12/06 21:37:23;;;;;;;38.33;22.52;;;;;;;;;;5059888;28;20083;-81